.
WxDataArchive / Data Records for 2015-09-08
2015-09-07 September 2015 2015-09-09

Data Records for Tuesday, 08 September 2015

Time	Temp	Chill	HIndex	Humid	Dewpt	 Wind 	HiWind	WindDir	Rain 	Barom
-----	----	-----	------	-----	-----	------	------	-------	-----	-----
00:00	74.9	74.9	74.9	84	69.7	0	0	---	0.00	29.936 
00:05	74.9	74.9	74.9	84	69.7	0	0	---	0.00	29.936 
00:10	74.9	74.9	74.9	84	69.7	0	0	---	0.00	29.936 
00:15	74.9	74.9	74.9	83	69.4	0	0	---	0.00	29.936 
00:20	74.9	74.9	74.9	83	69.4	0	0	---	0.00	29.936 
00:25	74.9	74.9	74.9	83	69.4	0	0	---	0.00	29.936 
00:30	74.7	74.7	74.7	83	69.2	0	0	---	0.00	29.934 
00:35	74.7	74.7	74.7	83	69.2	0	0	---	0.00	29.934 
00:40	74.6	74.6	74.6	82	68.7	0	0	---	0.00	29.934 
00:45	74.6	74.6	74.6	82	68.7	0	0	---	0.00	29.933 
00:50	74.6	74.6	74.6	82	68.7	0	0	---	0.00	29.933 
00:55	74.6	74.6	74.6	82	68.7	0	0	---	0.00	29.933 
01:00	74.4	74.4	74.4	82	68.5	0	0	---	0.00	29.934 
01:05	74.2	74.2	74.2	82	68.3	0	0	---	0.00	29.934 
01:10	74.2	74.2	74.2	82	68.3	0	0	---	0.00	29.934 
01:15	74.2	74.2	74.2	82	68.3	0	0	---	0.00	29.933 
01:20	74.2	74.2	74.2	81	68.0	0	0	---	0.00	29.933 
01:25	74.0	74.0	74.0	81	67.8	0	0	---	0.00	29.933 
01:30	74.0	74.0	74.0	81	67.8	0	0	---	0.00	29.935 
01:35	74.0	74.0	74.0	81	67.8	0	0	---	0.00	29.935 
01:40	74.0	74.0	74.0	81	67.8	0	0	---	0.00	29.935 
01:45	73.9	73.9	73.9	81	67.7	0	0	---	0.00	29.934 
01:50	73.9	73.9	73.9	81	67.7	0	0	---	0.00	29.934 
01:55	73.9	73.9	73.9	81	67.7	0	0	---	0.00	29.934 
02:00	73.9	73.9	73.9	81	67.7	0	0	---	0.00	29.935 
02:05	73.9	73.9	73.9	81	67.7	0	0	---	0.00	29.935 
02:10	73.9	73.9	73.9	81	67.7	0	0	---	0.00	29.935 
02:15	73.9	73.9	73.9	81	67.7	0	0	---	0.00	29.936 
02:20	73.7	73.7	73.7	81	67.5	0	0	---	0.00	29.936 
02:25	73.7	73.7	73.7	81	67.5	0	0	---	0.00	29.936 
02:30	73.5	73.5	73.5	82	67.7	0	0	---	0.00	29.935 
02:35	73.5	73.5	73.5	82	67.7	0	0	---	0.00	29.935 
02:40	73.5	73.5	73.5	82	67.7	0	0	---	0.00	29.935 
02:45	73.3	73.3	73.3	82	67.5	0	0	---	0.00	29.939 
02:50	73.3	73.3	73.3	82	67.5	0	0	---	0.00	29.939 
02:55	73.3	73.3	73.3	82	67.5	0	0	---	0.00	29.939 
03:00	73.2	73.2	73.2	82	67.4	0	0	---	0.00	29.939 
03:05	73.2	73.2	73.2	83	67.7	0	0	---	0.00	29.939 
03:10	73.0	73.0	73.0	83	67.5	0	0	---	0.00	29.939 
03:15	73.0	73.0	73.0	83	67.5	0	0	---	0.00	29.938 
03:20	72.8	72.8	72.8	83	67.3	0	0	---	0.00	29.938 
03:25	72.8	72.8	72.8	83	67.3	0	0	---	0.00	29.938 
03:30	72.7	72.7	72.7	83	67.2	0	0	---	0.00	29.936 
03:35	72.5	72.5	72.5	84	67.4	0	0	---	0.00	29.936 
03:40	72.3	72.3	72.3	84	67.2	0	0	---	0.00	29.936 
03:45	72.1	72.1	72.1	84	67.0	0	0	---	0.00	29.935 
03:50	72.1	72.1	72.1	84	67.0	0	0	---	0.00	29.935 
03:55	72.0	72.0	72.0	85	67.2	0	0	---	0.00	29.935 
04:00	72.0	72.0	72.0	85	67.2	0	0	---	0.00	29.937 
04:05	71.8	71.8	71.8	85	67.0	0	0	---	0.00	29.937 
04:10	71.8	71.8	71.8	85	67.0	0	0	---	0.00	29.937 
04:15	71.8	71.8	71.8	85	67.0	0	0	---	0.00	29.936 
04:20	71.8	71.8	71.8	85	67.0	0	0	---	0.00	29.936 
04:25	71.8	71.8	71.8	85	67.0	0	0	---	0.00	29.936 
04:30	71.8	71.8	71.8	85	67.0	0	0	---	0.00	29.936 
04:35	71.8	71.8	71.8	85	67.0	0	0	---	0.00	29.936 
04:40	71.6	71.6	71.6	85	66.8	0	0	---	0.00	29.936 
04:45	71.6	71.6	71.6	85	66.8	0	0	---	0.00	29.926 
04:50	71.6	71.6	71.6	85	66.8	0	0	---	0.00	29.926 
04:55	71.6	71.6	71.6	85	66.8	0	0	---	0.00	29.926 
05:00	71.6	71.6	71.6	85	66.8	0	0	---	0.00	29.924 
05:05	71.6	71.6	71.6	85	66.8	0	0	---	0.00	29.924 
05:10	71.6	71.6	71.6	85	66.8	0	0	---	0.00	29.924 
05:15	71.5	71.5	71.5	85	66.7	0	0	---	0.00	29.927 
05:20	71.5	71.5	71.5	85	66.7	0	0	---	0.00	29.927 
05:25	71.3	71.3	71.3	86	66.9	0	0	---	0.00	29.927 
05:30	71.3	71.3	71.3	86	66.9	0	0	---	0.00	29.926 
05:35	71.1	71.1	71.1	86	66.7	0	0	---	0.00	29.926 
05:40	71.1	71.1	71.1	86	66.7	0	0	---	0.00	29.926 
05:45	71.1	71.1	71.1	86	66.7	0	0	---	0.00	29.923 
05:50	71.1	71.1	71.1	86	66.7	0	0	---	0.00	29.923 
05:55	70.9	70.9	70.9	86	66.5	0	0	---	0.00	29.923 
06:00	70.9	70.9	70.9	87	66.8	0	0	---	0.00	29.922 
06:05	70.8	70.8	70.8	87	66.7	0	0	---	0.00	29.922 
06:10	70.8	70.8	70.8	87	66.7	0	0	---	0.00	29.922 
06:15	70.8	70.8	70.8	87	66.7	0	0	---	0.00	29.920 
06:20	70.8	70.8	70.8	87	66.7	0	0	---	0.00	29.920 
06:25	70.8	70.8	70.8	87	66.7	0	0	---	0.00	29.920 
06:30	70.9	70.9	70.9	87	66.8	0	0	---	0.00	29.917 
06:35	70.9	70.9	70.9	87	66.8	0	0	---	0.00	29.917 
06:40	71.1	71.1	71.1	87	67.0	0	0	---	0.00	29.917 
06:45	71.1	71.1	71.1	87	67.0	0	0	---	0.00	29.918 
06:50	71.3	71.3	71.3	86	66.9	0	0	---	0.00	29.918 
06:55	71.3	71.3	71.3	86	66.9	0	0	---	0.00	29.918 
07:00	71.5	71.5	71.5	86	67.1	0	0	---	0.00	29.917 
07:05	71.5	71.5	71.5	86	67.1	0	0	---	0.00	29.917 
07:10	71.5	71.5	71.5	86	67.1	0	0	---	0.00	29.917 
07:15	71.5	71.5	71.5	86	67.1	0	0	---	0.00	29.921 
07:20	71.5	71.5	71.5	86	67.1	0	0	---	0.00	29.921 
07:25	71.3	71.3	71.3	86	66.9	0	0	---	0.00	29.921 
07:30	71.3	71.3	71.3	86	66.9	0	0	---	0.00	29.925 
07:35	71.1	71.1	71.1	86	66.7	0	0	---	0.00	29.925 
07:40	71.3	71.3	71.3	86	66.9	0	0	---	0.00	29.925 
07:45	71.3	71.3	71.3	86	66.9	0	0	---	0.00	29.919 
07:50	71.5	71.5	71.5	86	67.1	0	0	---	0.00	29.919 
07:55	71.5	71.5	71.5	86	67.1	0	0	---	0.00	29.919 
08:00	71.6	71.6	71.6	86	67.2	0	0	---	0.00	29.918 
08:05	71.8	71.8	71.8	86	67.4	0	0	---	0.00	29.918 
08:10	72.0	72.0	72.0	86	67.6	0	0	---	0.00	29.918 
08:15	72.3	72.3	72.3	85	67.5	0	0	---	0.00	29.927 
08:20	72.7	72.7	72.7	85	67.9	0	0	---	0.00	29.927 
08:25	72.8	72.8	72.8	84	67.7	0	0	---	0.00	29.927 
08:30	73.2	73.2	73.2	84	68.1	0	0	---	0.00	29.928 
08:35	73.5	73.5	73.5	84	68.4	0	0	---	0.00	29.928 
08:40	73.9	73.9	73.9	83	68.4	0	0	---	0.00	29.928 
08:45	74.2	74.2	74.2	82	68.3	0	0	---	0.00	29.928 
08:50	74.6	74.6	74.6	82	68.7	0	0	---	0.00	29.928 
08:55	74.9	74.9	74.9	81	68.7	0	1	292	0.00	29.928 
09:00	75.1	75.1	75.7	80	68.5	0	0	---	0.00	29.926 
09:05	75.3	75.3	76.0	80	68.7	0	0	---	0.00	29.926 
09:10	75.4	75.4	76.1	80	68.8	0	1	292	0.00	29.926 
09:15	75.6	75.6	76.5	79	68.6	0	0	---	0.00	29.926 
09:20	75.8	75.8	76.8	79	68.8	0	0	---	0.00	29.926 
09:25	76.1	76.1	77.2	79	69.1	0	2	292	0.00	29.926 
09:30	76.5	76.5	77.9	78	69.1	0	0	---	0.00	29.921 
09:35	76.8	76.8	78.4	77	69.0	0	1	292	0.00	29.921 
09:40	77.2	77.2	79.0	76	69.0	0	1	292	0.00	29.921 
09:45	77.6	77.6	79.6	76	69.4	0	1	292	0.00	29.919 
09:50	77.9	77.9	80.0	75	69.3	0	2	292	0.00	29.919 
09:55	78.3	78.3	80.6	74	69.3	0	1	292	0.00	29.919 
10:00	78.6	78.6	81.1	74	69.6	0	1	292	0.00	29.914 
10:05	79.0	79.0	81.7	74	70.0	0	1	292	0.00	29.914 
10:10	79.4	79.4	82.3	73	70.0	0	1	292	0.00	29.914 
10:15	79.9	79.9	83.0	72	70.0	0	3	292	0.00	29.912 
10:20	80.1	80.1	83.2	71	69.8	1	4	292	0.00	29.912 
10:25	80.5	80.5	83.9	71	70.2	0	1	292	0.00	29.912 
10:30	80.7	80.7	84.0	69	69.6	0	2	292	0.00	29.910 
10:35	80.5	80.5	83.6	69	69.4	0	2	292	0.00	29.910 
10:40	80.5	80.5	83.8	70	69.8	0	1	292	0.00	29.910 
10:45	80.7	80.7	84.1	70	70.0	0	1	292	0.00	29.907 
10:50	80.9	80.9	84.3	69	69.8	0	1	292	0.00	29.907 
10:55	81.1	81.1	84.6	69	69.9	0	1	292	0.00	29.907 
11:00	81.8	81.8	85.5	67	69.7	0	2	292	0.00	29.898 
11:05	82.4	82.4	86.3	66	69.9	0	2	292	0.00	29.898 
11:10	82.8	82.8	87.0	66	70.3	0	3	22	0.00	29.898 
11:15	83.2	83.2	87.2	64	69.7	0	2	22	0.00	29.893 
11:20	83.6	83.6	87.6	63	69.6	0	2	0	0.00	29.893 
11:25	84.0	84.0	88.1	62	69.5	0	1	0	0.00	29.893 
11:30	84.3	84.3	88.6	62	69.8	0	1	315	0.00	29.891 
11:35	84.5	84.5	88.1	59	68.6	1	4	315	0.00	29.891 
11:40	84.7	84.7	88.7	60	69.2	0	5	90	0.00	29.891 
11:45	85.1	85.1	89.4	60	69.6	0	2	90	0.00	29.884 
11:50	85.5	85.5	89.5	58	69.0	0	3	90	0.00	29.884 
11:55	85.5	85.5	89.2	57	68.5	1	4	90	0.00	29.884 
12:00	85.7	85.7	89.5	57	68.7	1	5	90	0.00	29.879 
12:05	85.3	85.3	88.8	57	68.3	1	3	248	0.00	29.879 
12:10	85.3	85.3	89.2	58	68.8	1	3	338	0.00	29.879 
12:15	85.3	85.3	89.5	59	69.3	1	3	338	0.00	29.878 
12:20	85.7	85.7	89.5	57	68.7	0	2	292	0.00	29.878 
12:25	86.1	86.1	90.2	57	69.1	1	2	292	0.00	29.878 
12:30	86.3	86.3	89.9	55	68.2	1	2	315	0.00	29.874 
12:35	86.5	86.5	89.9	54	67.8	1	3	270	0.00	29.874 
12:40	86.5	86.5	89.9	54	67.8	1	4	270	0.00	29.874 
12:45	87.0	87.0	90.4	53	67.8	1	2	0	0.00	29.875 
12:50	87.0	87.0	90.4	53	67.8	0	3	248	0.00	29.875 
12:55	87.4	87.4	90.7	52	67.6	0	2	248	0.00	29.875 
13:00	87.8	87.8	91.8	53	68.5	1	4	292	0.00	29.867 
13:05	87.8	87.8	91.1	51	67.4	1	2	248	0.00	29.867 
13:10	88.0	88.0	91.8	52	68.1	0	2	315	0.00	29.867 
13:15	87.8	87.8	91.4	52	67.9	1	4	292	0.00	29.865 
13:20	87.8	87.8	91.4	52	67.9	0	2	338	0.00	29.865 
13:25	88.0	88.0	91.0	50	67.0	1	3	270	0.00	29.865 
13:30	88.0	88.0	91.4	51	67.6	1	6	270	0.00	29.858 
13:35	88.2	88.2	91.8	51	67.7	1	4	45	0.00	29.858 
13:40	88.2	88.2	92.1	52	68.3	0	2	270	0.00	29.858 
13:45	88.4	88.4	91.7	50	67.4	1	4	270	0.00	29.852 
13:50	88.4	88.4	91.3	49	66.8	1	6	248	0.00	29.852 
13:55	88.6	88.6	91.7	49	67.0	1	7	45	0.00	29.852 
14:00	88.6	88.6	91.7	49	67.0	1	2	22	0.00	29.840 
14:05	88.6	88.6	91.3	48	66.4	1	4	248	0.00	29.840 
14:10	88.2	88.2	91.4	50	67.2	1	6	248	0.00	29.840 
14:15	87.8	87.8	90.7	50	66.8	1	4	292	0.00	29.829 
14:20	88.0	88.0	91.8	52	68.1	1	4	270	0.00	29.829 
14:25	88.4	88.4	91.3	49	66.8	1	3	270	0.00	29.829 
14:30	88.6	88.6	91.7	49	67.0	1	6	270	0.00	29.819 
14:35	88.8	88.8	92.4	50	67.7	1	4	68	0.00	29.819 
14:40	89.0	89.0	92.4	49	67.3	1	3	315	0.00	29.819 
14:45	89.3	89.3	92.9	49	67.6	0	2	270	0.00	29.812 
14:50	89.0	89.0	92.4	49	67.3	1	4	270	0.00	29.812 
14:55	89.0	89.0	92.0	48	66.7	1	3	292	0.00	29.812 
15:00	89.3	89.3	92.1	47	66.4	1	3	90	0.00	29.817 
15:05	89.5	89.5	92.1	46	65.9	1	4	248	0.00	29.817 
15:10	89.7	89.7	92.8	47	66.7	1	4	248	0.00	29.817 
15:15	89.5	89.5	91.7	45	65.3	2	3	315	0.00	29.814 
15:20	88.8	88.8	90.9	46	65.3	1	3	270	0.00	29.814 
15:25	88.6	88.6	91.7	49	67.0	1	3	270	0.00	29.814 
15:30	88.6	88.6	91.3	48	66.4	1	5	90	0.00	29.812 
15:35	88.2	88.2	90.7	48	66.0	1	4	0	0.00	29.812 
15:40	88.2	88.2	90.7	48	66.0	0	3	248	0.00	29.812 
15:45	88.2	88.2	90.3	47	65.4	1	4	248	0.00	29.805 
15:50	88.0	88.0	90.3	48	65.8	1	3	248	0.00	29.805 
15:55	88.4	88.4	91.0	48	66.2	1	5	315	0.00	29.805 
16:00	88.6	88.6	90.6	46	65.1	0	2	292	0.00	29.805 
16:05	88.4	88.4	90.3	46	64.9	0	3	270	0.00	29.805 
16:10	88.2	88.2	90.3	47	65.4	1	7	270	0.00	29.805 
16:15	88.2	88.2	90.3	47	65.4	1	5	248	0.00	29.798 
16:20	88.0	88.0	89.7	46	64.6	1	4	45	0.00	29.798 
16:25	87.8	87.8	90.0	48	65.6	0	3	315	0.00	29.798 
16:30	87.8	87.8	90.4	49	66.2	1	4	112	0.00	29.794 
16:35	88.0	88.0	90.0	47	65.2	1	4	112	0.00	29.794 
16:40	88.4	88.4	91.0	48	66.2	0	1	270	0.00	29.794 
16:45	88.6	88.6	90.6	46	65.1	1	3	270	0.00	29.785 
16:50	88.6	88.6	90.6	46	65.1	0	2	270	0.00	29.785 
16:55	88.4	88.4	91.0	48	66.2	0	3	270	0.00	29.785 
17:00	88.0	88.0	89.7	46	64.6	1	4	270	0.00	29.781 
17:05	87.6	87.6	89.1	46	64.2	0	4	248	0.00	29.781 
17:10	87.4	87.4	89.1	47	64.7	1	3	248	0.00	29.781 
17:15	87.4	87.4	89.1	47	64.7	0	3	315	0.00	29.781 
17:20	87.4	87.4	89.1	47	64.7	0	4	248	0.00	29.781 
17:25	87.4	87.4	89.1	47	64.7	0	1	248	0.00	29.781 
17:30	87.2	87.2	89.1	48	65.1	0	2	248	0.00	29.775 
17:35	87.0	87.0	89.1	49	65.5	0	1	248	0.00	29.775 
17:40	87.0	87.0	88.8	48	64.9	0	2	248	0.00	29.775 
17:45	86.7	86.7	88.6	49	65.2	0	2	248	0.00	29.770 
17:50	86.7	86.7	88.3	48	64.6	0	3	0	0.00	29.770 
17:55	86.5	86.5	88.3	49	65.0	0	2	0	0.00	29.770 
18:00	86.5	86.5	88.3	49	65.0	0	1	0	0.00	29.768 
18:05	86.5	86.5	88.6	50	65.6	0	2	68	0.00	29.768 
18:10	86.3	86.3	88.3	50	65.4	0	2	68	0.00	29.768 
18:15	86.3	86.3	88.3	50	65.4	0	1	68	0.00	29.768 
18:20	86.1	86.1	88.0	50	65.3	0	1	68	0.00	29.768 
18:25	85.9	85.9	87.7	50	65.1	0	0	---	0.00	29.768 
18:30	85.9	85.9	87.7	50	65.1	0	1	68	0.00	29.774 
18:35	85.9	85.9	87.7	50	65.1	0	1	68	0.00	29.774 
18:40	85.7	85.7	87.7	51	65.5	0	1	68	0.00	29.774 
18:45	85.7	85.7	87.4	50	64.9	0	1	68	0.00	29.776 
18:50	85.5	85.5	87.4	51	65.3	0	1	68	0.00	29.776 
18:55	85.3	85.3	87.4	52	65.6	0	1	68	0.00	29.776 
19:00	85.1	85.1	87.1	52	65.5	0	0	---	0.00	29.783 
19:05	84.9	84.9	86.8	52	65.3	0	0	---	0.00	29.783 
19:10	84.9	84.9	87.1	53	65.8	0	1	68	0.00	29.783 
19:15	84.7	84.7	87.0	54	66.2	0	0	---	0.00	29.781 
19:20	84.5	84.5	86.7	54	66.0	0	0	---	0.00	29.781 
19:25	84.3	84.3	86.5	54	65.8	0	3	68	0.00	29.781 
19:30	84.1	84.1	86.4	55	66.2	0	1	68	0.00	29.780 
19:35	84.0	84.0	86.3	55	66.1	0	0	---	0.00	29.780 
19:40	83.8	83.8	86.0	55	65.9	0	1	68	0.00	29.780 
19:45	83.6	83.6	85.7	55	65.7	0	2	68	0.00	29.777 
19:50	83.4	83.4	85.6	56	66.0	0	0	---	0.00	29.777 
19:55	83.2	83.2	85.3	56	65.8	0	0	---	0.00	29.777 
20:00	82.8	82.8	84.8	56	65.5	0	1	68	0.00	29.773 
20:05	82.6	82.6	84.7	57	65.8	0	0	---	0.00	29.773 
20:10	82.4	82.4	84.6	58	66.1	0	0	---	0.00	29.773 
20:15	82.0	82.0	84.1	58	65.7	0	0	---	0.00	29.775 
20:20	81.8	81.8	83.8	58	65.6	1	5	292	0.00	29.775 
20:25	80.9	80.9	83.7	65	68.0	4	9	270	0.00	29.775 
20:30	78.1	78.1	80.3	73	68.7	2	5	292	0.01	29.786 
20:35	76.7	76.7	78.1	79	69.7	0	2	292	0.00	29.786 
20:40	75.8	75.8	76.6	81	69.5	0	1	292	0.00	29.786 
20:45	75.3	75.3	75.6	83	69.8	0	0	---	0.00	29.793 
20:50	74.9	74.9	74.9	84	69.7	0	0	---	0.00	29.793 
20:55	74.7	74.7	74.7	84	69.5	0	0	---	0.00	29.793 
21:00	74.6	74.6	74.6	85	69.8	0	0	---	0.00	29.792 
21:05	74.2	74.2	74.2	86	69.7	0	0	---	0.00	29.792 
21:10	74.0	74.0	74.0	87	69.9	0	0	---	0.00	29.792 
21:15	73.9	73.9	73.9	87	69.8	0	0	---	0.00	29.790 
21:20	73.9	73.9	73.9	88	70.1	0	0	---	0.00	29.790 
21:25	73.7	73.7	73.7	88	69.9	0	0	---	0.00	29.790 
21:30	73.7	73.7	73.7	88	69.9	0	0	---	0.00	29.797 
21:35	73.5	73.5	73.5	89	70.0	0	0	---	0.00	29.797 
21:40	73.3	73.3	73.3	89	69.9	0	0	---	0.00	29.797 
21:45	73.3	73.3	73.3	89	69.9	0	0	---	0.00	29.802 
21:50	73.3	73.3	73.3	90	70.2	0	0	---	0.00	29.802 
21:55	73.3	73.3	73.3	90	70.2	0	0	---	0.00	29.802 
22:00	73.5	73.5	73.5	90	70.4	0	0	---	0.00	29.811 
22:05	73.5	73.5	73.5	90	70.4	0	0	---	0.00	29.811 
22:10	73.5	73.5	73.5	90	70.4	0	0	---	0.00	29.811 
22:15	73.5	73.5	73.5	90	70.4	0	1	292	0.00	29.814 
22:20	73.3	73.3	73.3	89	69.9	0	1	292	0.00	29.814 
22:25	73.2	73.2	73.2	88	69.4	0	1	292	0.00	29.814 
22:30	73.2	73.2	73.2	88	69.4	0	1	292	0.00	29.818 
22:35	73.3	73.3	73.3	87	69.2	0	1	292	0.00	29.818 
22:40	73.3	73.3	73.3	86	68.8	0	1	292	0.00	29.818 
22:45	73.3	73.3	73.3	86	68.8	0	3	292	0.00	29.827 
22:50	73.3	73.3	73.3	85	68.5	1	4	292	0.00	29.827 
22:55	73.3	73.3	73.3	84	68.2	1	3	292	0.00	29.827 
23:00	73.3	73.3	73.3	83	67.8	1	2	292	0.00	29.828 
23:05	73.2	73.2	73.2	82	67.4	1	4	292	0.00	29.828 
23:10	73.2	73.2	73.2	82	67.4	1	4	292	0.00	29.828 
23:15	73.2	73.2	73.2	81	67.0	1	2	292	0.00	29.821 
23:20	73.2	73.2	73.2	81	67.0	0	2	292	0.00	29.821 
23:25	73.0	73.0	73.0	82	67.2	0	3	292	0.00	29.821 
23:30	73.0	73.0	73.0	82	67.2	0	1	292	0.00	29.816 
23:35	72.8	72.8	72.8	82	67.0	0	1	292	0.00	29.816 
23:40	72.8	72.8	72.8	82	67.0	0	1	292	0.00	29.816 
23:45	72.7	72.7	72.7	82	66.9	0	1	292	0.00	29.811 
23:50	72.7	72.7	72.7	82	66.9	0	0	---	0.00	29.811 
23:55	72.7	72.7	72.7	82	66.9	0	1	292	0.00	29.811 

CoCoRaHS
IN-AL-39
A2 Web Hosting
Creative Commons License
GoDaddy
search engine by freefind advanced

loaded 2018-11-15 13:42:39 • last modified 2010-11-18 10:43:29
Privacy PolicyDisclaimer
• wx.awcolley.com is powered by PmWiki v.2002016 •
• all content (unless otherwise noted) © 2018 A W Colley